sensor_id;sensor_type;location;lat;lon;timestamp;pressure;altitude;pressure_sealevel;temperature;humidity
18985;BME280;9626;52.552;13.436;2023-05-02T00:00:39;100690.94;;;14.30;50.88
18985;BME280;9626;52.552;13.436;2023-05-02T00:03:05;100691.63;;;14.35;50.39
18985;BME280;9626;52.552;13.436;2023-05-02T00:05:33;100696.81;;;14.40;50.53
18985;BME280;9626;52.552;13.436;2023-05-02T00:07:59;100680.88;;;14.39;50.87
18985;BME280;9626;52.552;13.436;2023-05-02T00:10:25;100694.25;;;14.37;50.46
18985;BME280;9626;52.552;13.436;2023-05-02T00:12:51;100693.59;;;14.30;51.04
18985;BME280;9626;52.552;13.436;2023-05-02T00:15:17;100693.63;;;14.29;51.20
18985;BME280;9626;52.552;13.436;2023-05-02T00:17:43;100691.00;;;14.27;51.60
18985;BME280;9626;52.552;13.436;2023-05-02T00:20:12;100688.69;;;14.18;51.60
18985;BME280;9626;52.552;13.436;2023-05-02T00:22:38;100681.81;;;14.11;52.20
18985;BME280;9626;52.552;13.436;2023-05-02T00:25:05;100687.09;;;14.12;52.42
18985;BME280;9626;52.552;13.436;2023-05-02T00:27:32;100681.38;;;13.98;52.78
18985;BME280;9626;52.552;13.436;2023-05-02T00:29:58;100684.97;;;13.97;51.23
18985;BME280;9626;52.552;13.436;2023-05-02T00:32:25;100684.00;;;13.99;50.80
18985;BME280;9626;52.552;13.436;2023-05-02T00:34:52;100679.53;;;14.00;51.31
18985;BME280;9626;52.552;13.436;2023-05-02T00:37:18;100684.06;;;13.98;50.82
18985;BME280;9626;52.552;13.436;2023-05-02T00:39:44;100685.13;;;13.92;51.32
18985;BME280;9626;52.552;13.436;2023-05-02T00:42:10;100684.41;;;13.87;51.58
18985;BME280;9626;52.552;13.436;2023-05-02T00:44:36;100685.31;;;13.86;50.46
18985;BME280;9626;52.552;13.436;2023-05-02T00:47:02;100684.72;;;13.78;51.41
18985;BME280;9626;52.552;13.436;2023-05-02T00:49:29;100687.31;;;13.79;51.17
18985;BME280;9626;52.552;13.436;2023-05-02T00:51:57;100687.19;;;13.82;51.43
18985;BME280;9626;52.552;13.436;2023-05-02T00:54:24;100684.81;;;13.75;52.02
18985;BME280;9626;52.552;13.436;2023-05-02T00:56:50;100676.16;;;13.68;51.60
18985;BME280;9626;52.552;13.436;2023-05-02T00:59:16;100686.47;;;13.50;52.62
18985;BME280;9626;52.552;13.436;2023-05-02T01:04:37;100678.72;;;13.44;52.68
18985;BME280;9626;52.552;13.436;2023-05-02T01:10:18;100686.38;;;13.53;52.63
18985;BME280;9626;52.552;13.436;2023-05-02T01:15:16;100687.19;;;13.56;52.74
18985;BME280;9626;52.552;13.436;2023-05-02T01:17:44;100682.28;;;13.43;53.30
18985;BME280;9626;52.552;13.436;2023-05-02T01:20:32;100680.53;;;13.42;53.98
18985;BME280;9626;52.552;13.436;2023-05-02T01:23:14;100683.38;;;13.36;54.34
18985;BME280;9626;52.552;13.436;2023-05-02T01:30:58;100688.06;;;13.26;56.14
18985;BME280;9626;52.552;13.436;2023-05-02T01:33:26;100694.34;;;13.24;56.66
18985;BME280;9626;52.552;13.436;2023-05-02T01:35:54;100699.78;;;13.21;57.24
18985;BME280;9626;52.552;13.436;2023-05-02T01:38:21;100697.31;;;13.14;57.71
18985;BME280;9626;52.552;13.436;2023-05-02T01:40:50;100696.56;;;13.09;58.00
18985;BME280;9626;52.552;13.436;2023-05-02T01:43:18;100697.47;;;13.08;58.61
18985;BME280;9626;52.552;13.436;2023-05-02T01:45:47;100699.34;;;13.05;59.12
18985;BME280;9626;52.552;13.436;2023-05-02T01:48:15;100707.56;;;12.97;59.95
18985;BME280;9626;52.552;13.436;2023-05-02T01:50:43;100704.06;;;12.95;60.25
18985;BME280;9626;52.552;13.436;2023-05-02T01:53:11;100707.75;;;12.91;60.88
18985;BME280;9626;52.552;13.436;2023-05-02T01:55:42;100716.56;;;12.93;60.99
18985;BME280;9626;52.552;13.436;2023-05-02T01:58:10;100705.78;;;12.97;61.31
18985;BME280;9626;52.552;13.436;2023-05-02T02:00:37;100719.06;;;12.97;61.53
18985;BME280;9626;52.552;13.436;2023-05-02T02:03:08;100715.81;;;12.88;62.11
18985;BME280;9626;52.552;13.436;2023-05-02T02:05:36;100709.66;;;12.85;62.41
18985;BME280;9626;52.552;13.436;2023-05-02T02:08:02;100708.66;;;12.90;62.93
18985;BME280;9626;52.552;13.436;2023-05-02T02:10:31;100720.22;;;12.89;63.13
18985;BME280;9626;52.552;13.436;2023-05-02T02:13:06;100719.84;;;13.01;62.64
18985;BME280;9626;52.552;13.436;2023-05-02T02:15:37;100724.97;;;13.07;62.40
18985;BME280;9626;52.552;13.436;2023-05-02T02:18:09;100726.56;;;13.14;62.21
18985;BME280;9626;52.552;13.436;2023-05-02T02:20:37;100724.53;;;13.23;62.05
18985;BME280;9626;52.552;13.436;2023-05-02T02:23:05;100724.59;;;13.19;62.18
18985;BME280;9626;52.552;13.436;2023-05-02T02:25:33;100729.38;;;13.08;63.02
18985;BME280;9626;52.552;13.436;2023-05-02T02:28:00;100741.28;;;12.95;63.82
18985;BME280;9626;52.552;13.436;2023-05-02T02:30:26;100739.63;;;12.91;64.20
18985;BME280;9626;52.552;13.436;2023-05-02T02:32:52;100750.31;;;12.89;64.98
18985;BME280;9626;52.552;13.436;2023-05-02T02:35:18;100751.16;;;12.90;65.36
18985;BME280;9626;52.552;13.436;2023-05-02T02:37:49;100742.47;;;12.84;65.94
18985;BME280;9626;52.552;13.436;2023-05-02T02:40:25;100746.00;;;12.85;66.02
18985;BME280;9626;52.552;13.436;2023-05-02T02:45:47;100759.47;;;12.77;66.56
18985;BME280;9626;52.552;13.436;2023-05-02T02:48:32;100765.69;;;12.78;66.67
18985;BME280;9626;52.552;13.436;2023-05-02T02:51:22;100768.44;;;12.73;66.84
18985;BME280;9626;52.552;13.436;2023-05-02T02:54:00;100768.06;;;12.56;68.10
18985;BME280;9626;52.552;13.436;2023-05-02T02:56:40;100776.03;;;12.56;68.03
18985;BME280;9626;52.552;13.436;2023-05-02T02:59:18;100777.13;;;12.47;68.90
18985;BME280;9626;52.552;13.436;2023-05-02T03:02:00;100779.72;;;12.48;68.54
18985;BME280;9626;52.552;13.436;2023-05-02T03:04:29;100791.06;;;12.55;68.49
18985;BME280;9626;52.552;13.436;2023-05-02T03:06:56;100796.25;;;12.61;68.36
18985;BME280;9626;52.552;13.436;2023-05-02T03:09:22;100796.25;;;12.61;68.24
18985;BME280;9626;52.552;13.436;2023-05-02T03:11:48;100806.53;;;12.39;69.19
18985;BME280;9626;52.552;13.436;2023-05-02T03:14:14;100802.38;;;12.29;70.56
18985;BME280;9626;52.552;13.436;2023-05-02T03:16:41;100804.25;;;12.24;71.30
18985;BME280;9626;52.552;13.436;2023-05-02T03:19:07;100814.13;;;12.18;71.67
18985;BME280;9626;52.552;13.436;2023-05-02T03:21:34;100814.44;;;12.05;72.59
18985;BME280;9626;52.552;13.436;2023-05-02T03:24:02;100814.56;;;12.00;73.66
18985;BME280;9626;52.552;13.436;2023-05-02T03:26:28;100814.66;;;11.94;74.16
18985;BME280;9626;52.552;13.436;2023-05-02T03:28:55;100822.09;;;11.79;74.89
18985;BME280;9626;52.552;13.436;2023-05-02T03:31:21;100830.13;;;11.75;76.61
18985;BME280;9626;52.552;13.436;2023-05-02T03:33:48;100842.69;;;11.66;77.06
18985;BME280;9626;52.552;13.436;2023-05-02T03:36:14;100838.41;;;11.61;77.83
18985;BME280;9626;52.552;13.436;2023-05-02T03:38:41;100841.25;;;11.52;78.77
18985;BME280;9626;52.552;13.436;2023-05-02T03:41:07;100839.53;;;11.49;79.78
18985;BME280;9626;52.552;13.436;2023-05-02T03:43:33;100853.94;;;11.36;81.02
18985;BME280;9626;52.552;13.436;2023-05-02T03:46:04;100848.84;;;11.26;82.15
18985;BME280;9626;52.552;13.436;2023-05-02T03:48:31;100858.56;;;11.26;82.65
18985;BME280;9626;52.552;13.436;2023-05-02T03:50:57;100860.41;;;11.21;83.57
18985;BME280;9626;52.552;13.436;2023-05-02T03:53:23;100866.59;;;11.21;83.71
18985;BME280;9626;52.552;13.436;2023-05-02T03:55:49;100864.84;;;11.20;84.29
18985;BME280;9626;52.552;13.436;2023-05-02T03:58:16;100871.09;;;11.18;85.14
18985;BME280;9626;52.552;13.436;2023-05-02T04:00:42;100867.19;;;11.36;84.35
18985;BME280;9626;52.552;13.436;2023-05-02T04:03:08;100866.00;;;11.52;82.86
18985;BME280;9626;52.552;13.436;2023-05-02T04:05:34;100875.78;;;11.48;82.60
18985;BME280;9626;52.552;13.436;2023-05-02T04:08:00;100884.78;;;11.40;83.69
18985;BME280;9626;52.552;13.436;2023-05-02T04:10:27;100888.28;;;11.42;83.89
18985;BME280;9626;52.552;13.436;2023-05-02T04:12:53;100896.94;;;11.52;83.53
18985;BME280;9626;52.552;13.436;2023-05-02T04:15:20;100890.53;;;11.62;83.11
18985;BME280;9626;52.552;13.436;2023-05-02T04:17:46;100886.88;;;11.67;82.91
18985;BME280;9626;52.552;13.436;2023-05-02T04:20:12;100889.63;;;11.63;83.18
18985;BME280;9626;52.552;13.436;2023-05-02T04:22:38;100897.91;;;11.47;84.63
18985;BME280;9626;52.552;13.436;2023-05-02T04:25:05;100905.19;;;11.36;86.60
18985;BME280;9626;52.552;13.436;2023-05-02T04:27:32;100901.03;;;11.23;88.23
18985;BME280;9626;52.552;13.436;2023-05-02T04:29:58;100911.88;;;11.10;90.24
18985;BME280;9626;52.552;13.436;2023-05-02T04:32:24;100913.66;;;11.08;91.37
18985;BME280;9626;52.552;13.436;2023-05-02T04:34:50;100926.16;;;11.02;92.65
18985;BME280;9626;52.552;13.436;2023-05-02T04:37:16;100925.44;;;10.92;94.11
18985;BME280;9626;52.552;13.436;2023-05-02T04:39:43;100934.16;;;10.98;94.07
18985;BME280;9626;52.552;13.436;2023-05-02T04:42:09;100927.84;;;11.04;93.97
18985;BME280;9626;52.552;13.436;2023-05-02T04:44:35;100928.69;;;11.08;94.41
18985;BME280;9626;52.552;13.436;2023-05-02T04:47:01;100929.31;;;11.22;93.22
18985;BME280;9626;52.552;13.436;2023-05-02T04:49:29;100928.41;;;11.23;92.43
18985;BME280;9626;52.552;13.436;2023-05-02T04:51:56;100937.28;;;11.22;92.56
18985;BME280;9626;52.552;13.436;2023-05-02T04:54:22;100943.34;;;11.29;92.30
18985;BME280;9626;52.552;13.436;2023-05-02T04:56:48;100946.59;;;11.43;90.98
18985;BME280;9626;52.552;13.436;2023-05-02T04:59:14;100948.41;;;11.41;90.37
18985;BME280;9626;52.552;13.436;2023-05-02T05:01:41;100946.72;;;11.36;90.92
18985;BME280;9626;52.552;13.436;2023-05-02T05:04:10;100953.66;;;11.44;90.68
18985;BME280;9626;52.552;13.436;2023-05-02T05:06:36;100949.06;;;11.53;89.72
18985;BME280;9626;52.552;13.436;2023-05-02T05:09:02;100956.25;;;11.46;89.68
18985;BME280;9626;52.552;13.436;2023-05-02T05:11:29;100960.56;;;11.52;89.57
18985;BME280;9626;52.552;13.436;2023-05-02T05:13:55;100967.56;;;11.56;89.36
18985;BME280;9626;52.552;13.436;2023-05-02T05:16:21;100970.94;;;11.64;90.79
18985;BME280;9626;52.552;13.436;2023-05-02T05:18:47;100980.78;;;11.57;89.18
18985;BME280;9626;52.552;13.436;2023-05-02T05:21:14;100987.09;;;11.52;89.68
18985;BME280;9626;52.552;13.436;2023-05-02T05:23:40;100975.88;;;11.36;90.99
18985;BME280;9626;52.552;13.436;2023-05-02T05:26:11;100983.84;;;11.36;91.85
18985;BME280;9626;52.552;13.436;2023-05-02T05:28:38;100994.47;;;11.34;92.10
18985;BME280;9626;52.552;13.436;2023-05-02T05:31:10;100982.09;;;11.36;92.40
18985;BME280;9626;52.552;13.436;2023-05-02T05:33:38;100987.41;;;11.35;92.37
18985;BME280;9626;52.552;13.436;2023-05-02T05:36:08;100996.13;;;11.41;93.42
18985;BME280;9626;52.552;13.436;2023-05-02T05:38:34;100999.38;;;11.56;92.15
18985;BME280;9626;52.552;13.436;2023-05-02T05:41:01;101008.31;;;11.52;91.93
18985;BME280;9626;52.552;13.436;2023-05-02T05:43:27;101011.06;;;11.47;93.06
18985;BME280;9626;52.552;13.436;2023-05-02T05:45:54;101012.81;;;11.48;93.53
18985;BME280;9626;52.552;13.436;2023-05-02T05:48:21;101015.38;;;11.53;93.36
18985;BME280;9626;52.552;13.436;2023-05-02T05:50:47;101020.59;;;11.56;94.83
18985;BME280;9626;52.552;13.436;2023-05-02T05:53:14;101021.31;;;11.65;93.97
18985;BME280;9626;52.552;13.436;2023-05-02T05:55:40;101024.56;;;11.80;92.71
18985;BME280;9626;52.552;13.436;2023-05-02T05:58:07;101025.19;;;11.93;92.47
18985;BME280;9626;52.552;13.436;2023-05-02T06:00:34;101033.81;;;12.07;91.51
18985;BME280;9626;52.552;13.436;2023-05-02T06:03:00;101039.28;;;11.98;91.92
18985;BME280;9626;52.552;13.436;2023-05-02T06:05:26;101049.69;;;12.09;92.29
18985;BME280;9626;52.552;13.436;2023-05-02T06:07:53;101053.25;;;12.09;92.46
18985;BME280;9626;52.552;13.436;2023-05-02T06:10:19;101053.91;;;12.19;93.03
18985;BME280;9626;52.552;13.436;2023-05-02T06:12:48;101061.56;;;12.34;91.77
18985;BME280;9626;52.552;13.436;2023-05-02T06:15:14;101069.53;;;12.34;92.51
18985;BME280;9626;52.552;13.436;2023-05-02T06:17:40;101070.38;;;12.35;92.79
18985;BME280;9626;52.552;13.436;2023-05-02T06:20:06;101074.88;;;12.33;93.40
18985;BME280;9626;52.552;13.436;2023-05-02T06:22:32;101072.13;;;12.36;94.00
18985;BME280;9626;52.552;13.436;2023-05-02T06:24:58;101083.25;;;12.55;93.78
18985;BME280;9626;52.552;13.436;2023-05-02T06:27:25;101079.31;;;12.73;92.01
18985;BME280;9626;52.552;13.436;2023-05-02T06:29:52;101083.44;;;12.87;91.59
18985;BME280;9626;52.552;13.436;2023-05-02T06:32:18;101093.78;;;12.99;91.23
18985;BME280;9626;52.552;13.436;2023-05-02T06:34:44;101096.34;;;13.04;91.88
18985;BME280;9626;52.552;13.436;2023-05-02T06:37:11;101102.50;;;13.06;92.81
18985;BME280;9626;52.552;13.436;2023-05-02T06:39:37;101111.50;;;13.00;93.14
18985;BME280;9626;52.552;13.436;2023-05-02T06:42:03;101117.16;;;12.84;94.80
18985;BME280;9626;52.552;13.436;2023-05-02T06:44:29;101118.41;;;12.68;95.81
18985;BME280;9626;52.552;13.436;2023-05-02T06:46:55;101125.63;;;12.61;97.06
18985;BME280;9626;52.552;13.436;2023-05-02T06:49:21;101129.88;;;12.70;96.84
18985;BME280;9626;52.552;13.436;2023-05-02T06:51:48;101134.88;;;12.84;95.59
18985;BME280;9626;52.552;13.436;2023-05-02T06:54:14;101139.94;;;12.95;95.54
18985;BME280;9626;52.552;13.436;2023-05-02T06:56:41;101140.97;;;12.89;94.32
18985;BME280;9626;52.552;13.436;2023-05-02T06:59:07;101148.56;;;12.65;97.83
18985;BME280;9626;52.552;13.436;2023-05-02T07:01:33;101141.47;;;12.66;98.16
18985;BME280;9626;52.552;13.436;2023-05-02T07:04:00;101145.72;;;12.73;98.06
18985;BME280;9626;52.552;13.436;2023-05-02T07:06:26;101152.47;;;12.90;97.58
18985;BME280;9626;52.552;13.436;2023-05-02T07:08:52;101152.34;;;12.96;96.68
18985;BME280;9626;52.552;13.436;2023-05-02T07:11:18;101160.88;;;13.10;95.75
18985;BME280;9626;52.552;13.436;2023-05-02T07:13:46;101172.00;;;13.28;95.20
18985;BME280;9626;52.552;13.436;2023-05-02T07:16:12;101163.69;;;13.43;94.36
18985;BME280;9626;52.552;13.436;2023-05-02T07:18:38;101170.53;;;13.53;94.29
18985;BME280;9626;52.552;13.436;2023-05-02T07:21:04;101173.09;;;13.58;92.29
18985;BME280;9626;52.552;13.436;2023-05-02T07:23:30;101173.88;;;13.62;92.94
18985;BME280;9626;52.552;13.436;2023-05-02T07:25:57;101179.16;;;13.65;92.39
18985;BME280;9626;52.552;13.436;2023-05-02T07:28:22;101183.63;;;13.63;92.01
18985;BME280;9626;52.552;13.436;2023-05-02T07:30:49;101177.31;;;13.67;92.14
18985;BME280;9626;52.552;13.436;2023-05-02T07:33:15;101170.16;;;13.69;93.42
18985;BME280;9626;52.552;13.436;2023-05-02T07:35:41;101180.19;;;13.94;91.31
18985;BME280;9626;52.552;13.436;2023-05-02T07:38:07;101178.28;;;13.99;90.66
18985;BME280;9626;52.552;13.436;2023-05-02T07:40:33;101180.81;;;14.03;89.44
18985;BME280;9626;52.552;13.436;2023-05-02T07:43:00;101183.81;;;14.24;88.66
18985;BME280;9626;52.552;13.436;2023-05-02T07:45:26;101184.00;;;14.16;87.99
18985;BME280;9626;52.552;13.436;2023-05-02T07:47:52;101193.19;;;14.06;88.79
18985;BME280;9626;52.552;13.436;2023-05-02T07:50:18;101191.94;;;13.85;90.93
18985;BME280;9626;52.552;13.436;2023-05-02T07:52:44;101195.31;;;13.92;91.46
18985;BME280;9626;52.552;13.436;2023-05-02T07:55:10;101206.00;;;13.90;92.22
18985;BME280;9626;52.552;13.436;2023-05-02T07:57:37;101215.09;;;13.81;93.85
18985;BME280;9626;52.552;13.436;2023-05-02T08:00:03;101210.72;;;13.79;93.74
18985;BME280;9626;52.552;13.436;2023-05-02T08:02:32;101218.13;;;13.66;95.10
18985;BME280;9626;52.552;13.436;2023-05-02T08:04:58;101221.72;;;13.65;94.61
18985;BME280;9626;52.552;13.436;2023-05-02T08:07:24;101219.19;;;13.59;95.94
18985;BME280;9626;52.552;13.436;2023-05-02T08:09:50;101227.03;;;13.65;96.14
18985;BME280;9626;52.552;13.436;2023-05-02T08:12:17;101216.22;;;13.71;94.44
18985;BME280;9626;52.552;13.436;2023-05-02T08:14:43;101222.09;;;13.85;93.87
18985;BME280;9626;52.552;13.436;2023-05-02T08:17:09;101218.31;;;13.94;92.30
18985;BME280;9626;52.552;13.436;2023-05-02T08:19:35;101221.56;;;14.06;90.87
18985;BME280;9626;52.552;13.436;2023-05-02T08:22:01;101225.44;;;13.94;88.91
18985;BME280;9626;52.552;13.436;2023-05-02T08:24:27;101232.81;;;13.82;89.93
18985;BME280;9626;52.552;13.436;2023-05-02T08:26:54;101241.78;;;13.78;91.20
18985;BME280;9626;52.552;13.436;2023-05-02T08:29:20;101251.81;;;13.67;91.85
18985;BME280;9626;52.552;13.436;2023-05-02T08:31:46;101256.91;;;13.37;94.18
18985;BME280;9626;52.552;13.436;2023-05-02T08:34:12;101255.56;;;13.17;98.18
18985;BME280;9626;52.552;13.436;2023-05-02T08:36:38;101258.13;;;13.21;99.02
18985;BME280;9626;52.552;13.436;2023-05-02T08:39:04;101261.56;;;13.26;100.00
18985;BME280;9626;52.552;13.436;2023-05-02T08:41:32;101265.84;;;13.33;100.00
18985;BME280;9626;52.552;13.436;2023-05-02T08:43:59;101268.59;;;13.30;100.00
18985;BME280;9626;52.552;13.436;2023-05-02T08:46:25;101271.19;;;13.31;100.00
18985;BME280;9626;52.552;13.436;2023-05-02T08:48:54;101276.69;;;13.24;100.00
18985;BME280;9626;52.552;13.436;2023-05-02T08:51:23;101275.28;;;13.06;100.00
18985;BME280;9626;52.552;13.436;2023-05-02T08:53:51;101276.22;;;13.03;100.00
18985;BME280;9626;52.552;13.436;2023-05-02T08:56:17;101284.16;;;13.06;100.00
18985;BME280;9626;52.552;13.436;2023-05-02T08:58:45;101284.06;;;13.11;100.00
18985;BME280;9626;52.552;13.436;2023-05-02T09:01:16;101290.38;;;13.05;100.00
18985;BME280;9626;52.552;13.436;2023-05-02T09:03:43;101290.44;;;13.00;100.00
18985;BME280;9626;52.552;13.436;2023-05-02T09:06:14;101300.03;;;13.09;100.00
18985;BME280;9626;52.552;13.436;2023-05-02T09:08:42;101302.44;;;13.22;100.00
18985;BME280;9626;52.552;13.436;2023-05-02T09:11:10;101310.34;;;13.25;100.00
18985;BME280;9626;52.552;13.436;2023-05-02T09:13:44;101312.13;;;13.24;100.00
18985;BME280;9626;52.552;13.436;2023-05-02T09:16:19;101314.47;;;13.41;100.00
18985;BME280;9626;52.552;13.436;2023-05-02T09:18:49;101319.34;;;13.61;100.00
18985;BME280;9626;52.552;13.436;2023-05-02T09:21:17;101326.13;;;13.76;100.00
18985;BME280;9626;52.552;13.436;2023-05-02T09:23:45;101330.00;;;13.61;100.00
18985;BME280;9626;52.552;13.436;2023-05-02T09:26:14;101332.94;;;13.49;100.00
18985;BME280;9626;52.552;13.436;2023-05-02T09:28:45;101333.22;;;13.33;100.00
18985;BME280;9626;52.552;13.436;2023-05-02T09:31:15;101332.25;;;13.39;100.00
18985;BME280;9626;52.552;13.436;2023-05-02T09:33:42;101340.09;;;13.45;100.00
18985;BME280;9626;52.552;13.436;2023-05-02T09:36:11;101345.56;;;13.39;100.00
18985;BME280;9626;52.552;13.436;2023-05-02T09:38:40;101346.50;;;13.35;100.00
18985;BME280;9626;52.552;13.436;2023-05-02T09:41:06;101338.59;;;13.30;100.00
18985;BME280;9626;52.552;13.436;2023-05-02T09:43:32;101344.63;;;13.40;100.00
18985;BME280;9626;52.552;13.436;2023-05-02T09:46:00;101350.69;;;13.47;100.00
18985;BME280;9626;52.552;13.436;2023-05-02T09:48:28;101345.22;;;13.55;100.00
18985;BME280;9626;52.552;13.436;2023-05-02T09:50:55;101353.09;;;13.61;100.00
18985;BME280;9626;52.552;13.436;2023-05-02T09:53:23;101348.53;;;13.64;100.00
18985;BME280;9626;52.552;13.436;2023-05-02T09:56:01;101348.28;;;13.77;100.00
18985;BME280;9626;52.552;13.436;2023-05-02T09:58:28;101353.44;;;13.84;100.00
18985;BME280;9626;52.552;13.436;2023-05-02T10:00:56;101357.75;;;13.90;100.00
18985;BME280;9626;52.552;13.436;2023-05-02T10:03:25;101356.69;;;13.97;100.00
18985;BME280;9626;52.552;13.436;2023-05-02T10:05:51;101363.22;;;14.22;100.00
18985;BME280;9626;52.552;13.436;2023-05-02T10:08:21;101367.72;;;14.19;98.00
18985;BME280;9626;52.552;13.436;2023-05-02T10:10:55;101372.22;;;14.16;96.38
18985;BME280;9626;52.552;13.436;2023-05-02T10:13:23;101373.16;;;13.76;99.15
18985;BME280;9626;52.552;13.436;2023-05-02T10:18:37;101380.66;;;13.55;100.00
18985;BME280;9626;52.552;13.436;2023-05-02T10:21:08;101386.47;;;13.30;100.00
18985;BME280;9626;52.552;13.436;2023-05-02T10:23:35;101389.94;;;13.35;100.00
18985;BME280;9626;52.552;13.436;2023-05-02T10:26:03;101394.25;;;13.41;100.00
18985;BME280;9626;52.552;13.436;2023-05-02T10:28:29;101403.13;;;13.40;100.00
18985;BME280;9626;52.552;13.436;2023-05-02T10:30:57;101403.13;;;13.40;100.00
18985;BME280;9626;52.552;13.436;2023-05-02T10:33:23;101402.22;;;13.43;100.00
18985;BME280;9626;52.552;13.436;2023-05-02T10:35:49;101418.88;;;13.52;100.00
18985;BME280;9626;52.552;13.436;2023-05-02T10:38:20;101419.31;;;13.28;100.00
18985;BME280;9626;52.552;13.436;2023-05-02T10:40:49;101416.06;;;13.13;100.00
18985;BME280;9626;52.552;13.436;2023-05-02T10:43:26;101429.78;;;12.89;100.00
18985;BME280;9626;52.552;13.436;2023-05-02T10:45:52;101436.06;;;12.84;100.00
18985;BME280;9626;52.552;13.436;2023-05-02T10:48:21;101440.34;;;12.93;100.00
18985;BME280;9626;52.552;13.436;2023-05-02T10:50:53;101450.47;;;12.71;100.00
18985;BME280;9626;52.552;13.436;2023-05-02T10:53:23;101449.16;;;12.42;100.00
18985;BME280;9626;52.552;13.436;2023-05-02T10:58:34;101469.31;;;12.54;100.00
18985;BME280;9626;52.552;13.436;2023-05-02T11:04:02;101475.59;;;11.81;100.00
18985;BME280;9626;52.552;13.436;2023-05-02T11:06:33;101484.81;;;11.46;100.00
18985;BME280;9626;52.552;13.436;2023-05-02T11:11:43;101489.19;;;11.54;100.00
18985;BME280;9626;52.552;13.436;2023-05-02T11:14:12;101488.16;;;11.69;100.00
18985;BME280;9626;52.552;13.436;2023-05-02T11:22:30;101503.91;;;11.82;100.00
18985;BME280;9626;52.552;13.436;2023-05-02T11:24:56;101505.78;;;11.73;100.00
18985;BME280;9626;52.552;13.436;2023-05-02T11:29:54;101515.13;;;12.06;100.00
18985;BME280;9626;52.552;13.436;2023-05-02T11:32:21;101513.28;;;12.11;99.78
18985;BME280;9626;52.552;13.436;2023-05-02T11:34:50;101513.28;;;12.13;97.48
18985;BME280;9626;52.552;13.436;2023-05-02T11:37:19;101522.00;;;12.23;93.34
18985;BME280;9626;52.552;13.436;2023-05-02T11:39:45;101524.75;;;12.16;90.15
18985;BME280;9626;52.552;13.436;2023-05-02T11:42:30;101531.78;;;12.21;89.35
18985;BME280;9626;52.552;13.436;2023-05-02T11:44:58;101531.38;;;12.48;87.15
18985;BME280;9626;52.552;13.436;2023-05-02T11:47:26;101528.59;;;12.58;83.55
18985;BME280;9626;52.552;13.436;2023-05-02T11:49:56;101530.09;;;12.76;81.67
18985;BME280;9626;52.552;13.436;2023-05-02T11:52:22;101522.75;;;12.92;79.96
18985;BME280;9626;52.552;13.436;2023-05-02T11:54:53;101522.97;;;12.79;78.84
18985;BME280;9626;52.552;13.436;2023-05-02T11:57:20;101524.03;;;12.66;79.94
18985;BME280;9626;52.552;13.436;2023-05-02T12:02:16;101538.06;;;12.12;81.74
18985;BME280;9626;52.552;13.436;2023-05-02T12:04:42;101538.28;;;11.95;84.29
18985;BME280;9626;52.552;13.436;2023-05-02T12:07:11;101535.28;;;12.21;83.23
18985;BME280;9626;52.552;13.436;2023-05-02T12:09:51;101548.44;;;12.30;82.52
18985;BME280;9626;52.552;13.436;2023-05-02T12:12:20;101544.88;;;12.33;82.32
18985;BME280;9626;52.552;13.436;2023-05-02T12:14:48;101548.69;;;12.10;81.39
18985;BME280;9626;52.552;13.436;2023-05-02T12:17:14;101554.75;;;12.23;81.48
18985;BME280;9626;52.552;13.436;2023-05-02T12:19:41;101560.69;;;12.42;80.00
18985;BME280;9626;52.552;13.436;2023-05-02T12:22:08;101562.66;;;12.28;78.73
18985;BME280;9626;52.552;13.436;2023-05-02T12:24:35;101579.44;;;12.31;78.89
18985;BME280;9626;52.552;13.436;2023-05-02T12:27:11;101569.94;;;12.10;80.16
18985;BME280;9626;52.552;13.436;2023-05-02T12:29:43;101568.25;;;12.03;81.60
18985;BME280;9626;52.552;13.436;2023-05-02T12:32:11;101568.81;;;12.31;81.81
18985;BME280;9626;52.552;13.436;2023-05-02T12:34:38;101573.38;;;12.84;80.06
18985;BME280;9626;52.552;13.436;2023-05-02T12:37:05;101578.09;;;13.23;75.75
18985;BME280;9626;52.552;13.436;2023-05-02T12:39:39;101579.63;;;13.39;69.95
18985;BME280;9626;52.552;13.436;2023-05-02T12:42:09;101576.19;;;13.31;75.41
18985;BME280;9626;52.552;13.436;2023-05-02T12:44:38;101583.13;;;13.41;68.84
18985;BME280;9626;52.552;13.436;2023-05-02T12:47:04;101577.94;;;13.32;69.12
18985;BME280;9626;52.552;13.436;2023-05-02T12:49:30;101585.72;;;13.46;69.70
18985;BME280;9626;52.552;13.436;2023-05-02T12:51:56;101583.38;;;13.77;66.76
18985;BME280;9626;52.552;13.436;2023-05-02T12:54:22;101580.56;;;14.29;65.24
18985;BME280;9626;52.552;13.436;2023-05-02T12:56:49;101588.84;;;14.98;60.23
18985;BME280;9626;52.552;13.436;2023-05-02T12:59:29;101587.66;;;14.30;61.05
18985;BME280;9626;52.552;13.436;2023-05-02T13:01:57;101591.00;;;13.96;62.20
18985;BME280;9626;52.552;13.436;2023-05-02T13:04:36;101595.03;;;13.70;62.15
18985;BME280;9626;52.552;13.436;2023-05-02T13:07:04;101594.34;;;13.59;62.68
18985;BME280;9626;52.552;13.436;2023-05-02T13:09:30;101607.19;;;13.86;60.72
18985;BME280;9626;52.552;13.436;2023-05-02T13:11:56;101598.31;;;14.30;59.27
18985;BME280;9626;52.552;13.436;2023-05-02T13:14:24;101605.41;;;14.31;58.52
18985;BME280;9626;52.552;13.436;2023-05-02T13:16:50;101598.81;;;14.05;58.21
18985;BME280;9626;52.552;13.436;2023-05-02T13:19:20;101605.31;;;13.42;61.20
18985;BME280;9626;52.552;13.436;2023-05-02T13:21:47;101607.38;;;13.19;63.36
18985;BME280;9626;52.552;13.436;2023-05-02T13:24:13;101615.72;;;13.56;65.13
18985;BME280;9626;52.552;13.436;2023-05-02T13:26:40;101614.06;;;13.48;61.94
18985;BME280;9626;52.552;13.436;2023-05-02T13:29:11;101616.22;;;13.22;61.66